createdAt,value
2023-05-19T00:01:37.791Z,101439.68
2023-05-19T00:04:07.307Z,101439.00
2023-05-19T00:06:36.545Z,101442.84
2023-05-19T00:09:07.830Z,101441.95
2023-05-19T00:11:37.617Z,101441.61
2023-05-19T00:14:08.117Z,101441.52
2023-05-19T00:16:38.219Z,101437.21
2023-05-19T00:19:06.989Z,101436.30
2023-05-19T00:21:35.133Z,101436.65
2023-05-19T00:24:03.413Z,101438.20
2023-05-19T00:26:31.699Z,101441.15
2023-05-19T00:29:06.346Z,101441.48
2023-05-19T00:31:34.717Z,101443.55
2023-05-19T00:34:03.379Z,101446.14
2023-05-19T00:36:31.656Z,101444.83
2023-05-19T00:38:59.942Z,101443.59
2023-05-19T00:41:29.136Z,101447.48
2023-05-19T00:43:57.811Z,101447.15
2023-05-19T00:46:26.037Z,101449.08
2023-05-19T00:48:54.573Z,101450.83
2023-05-19T00:51:26.431Z,101455.40
2023-05-19T00:53:54.713Z,101455.23
2023-05-19T00:56:23.195Z,101454.64
2023-05-19T00:58:52.229Z,101453.38
2023-05-19T01:01:21.930Z,101455.52
2023-05-19T01:03:51.747Z,101454.83
2023-05-19T01:06:21.188Z,101455.38
2023-05-19T01:08:51.896Z,101454.33
2023-05-19T01:11:20.329Z,101453.10
2023-05-19T01:13:49.034Z,101455.56
2023-05-19T01:16:32.460Z,101457.29
2023-05-19T01:19:22.225Z,101455.98
2023-05-19T01:22:13.483Z,101458.44
2023-05-19T01:24:41.728Z,101455.16
2023-05-19T01:27:29.660Z,101453.95
2023-05-19T01:30:07.152Z,101452.71
2023-05-19T01:32:37.300Z,101453.44
2023-05-19T01:35:07.453Z,101449.79
2023-05-19T01:37:39.096Z,101450.72
2023-05-19T01:40:10.017Z,101455.30
2023-05-19T01:42:40.709Z,101453.48
2023-05-19T01:45:12.257Z,101457.89
2023-05-19T01:47:44.015Z,101459.00
2023-05-19T01:50:12.311Z,101462.73
2023-05-19T01:52:40.505Z,101465.90
2023-05-19T01:55:09.837Z,101464.19
2023-05-19T01:57:47.997Z,101463.68
2023-05-19T02:00:36.891Z,101462.52
2023-05-19T02:03:08.268Z,101467.61
2023-05-19T02:05:58.284Z,101471.64
2023-05-19T02:08:51.961Z,101473.13
2023-05-19T02:11:26.687Z,101473.47
2023-05-19T02:13:57.255Z,101475.25
2023-05-19T02:16:29.151Z,101477.88
2023-05-19T02:18:59.669Z,101478.95
2023-05-19T02:21:28.190Z,101482.27
2023-05-19T02:23:56.567Z,101484.38
2023-05-19T02:26:24.742Z,101486.67
2023-05-19T02:28:52.910Z,101488.11
2023-05-19T02:31:21.207Z,101492.36
2023-05-19T02:33:50.610Z,101490.61
2023-05-19T02:36:19.381Z,101492.27
2023-05-19T02:38:47.761Z,101499.81
2023-05-19T02:41:16.967Z,101498.96
2023-05-19T02:43:45.337Z,101499.84
2023-05-19T02:46:13.649Z,101504.89
2023-05-19T02:48:41.997Z,101503.62
2023-05-19T02:51:10.280Z,101504.66
2023-05-19T02:53:38.548Z,101511.32
2023-05-19T02:56:07.140Z,101514.29
2023-05-19T02:58:35.223Z,101517.96
2023-05-19T03:01:03.476Z,101519.53
2023-05-19T03:03:32.163Z,101515.48
2023-05-19T03:06:00.652Z,101510.58
2023-05-19T03:08:29.435Z,101512.37
2023-05-19T03:10:57.711Z,101514.67
2023-05-19T03:13:26.189Z,101520.04
2023-05-19T03:15:57.281Z,101520.48
2023-05-19T03:18:26.989Z,101523.54
2023-05-19T03:20:55.138Z,101524.15
2023-05-19T03:23:23.393Z,101525.08
2023-05-19T03:25:51.669Z,101528.78
2023-05-19T03:28:20.270Z,101530.05
2023-05-19T03:30:50.977Z,101529.02
2023-05-19T03:33:24.134Z,101531.11
2023-05-19T03:35:53.285Z,101531.80
2023-05-19T03:38:21.685Z,101533.52
2023-05-19T03:40:57.104Z,101531.04
2023-05-19T03:43:25.481Z,101528.83
2023-05-19T03:45:59.960Z,101529.92
2023-05-19T03:48:46.921Z,101532.05
2023-05-19T03:51:15.413Z,101526.98
2023-05-19T03:53:45.934Z,101531.36
2023-05-19T03:56:14.919Z,101532.05
2023-05-19T03:58:44.739Z,101533.27
2023-05-19T04:01:13.025Z,101534.33
2023-05-19T04:03:41.927Z,101533.92
2023-05-19T04:06:11.114Z,101533.38
2023-05-19T04:08:40.205Z,101533.70
2023-05-19T04:11:08.484Z,101535.98
2023-05-19T04:13:37.264Z,101534.58
2023-05-19T04:16:06.401Z,101534.73
2023-05-19T04:18:34.564Z,101532.39
2023-05-19T04:21:03.013Z,101531.48
2023-05-19T04:23:31.911Z,101530.92
2023-05-19T04:26:02.019Z,101524.55
2023-05-19T04:28:30.406Z,101523.30
2023-05-19T04:30:58.869Z,101530.29
2023-05-19T04:33:29.417Z,101526.69
2023-05-19T04:35:58.715Z,101524.52
2023-05-19T04:38:30.268Z,101528.61
2023-05-19T04:41:01.520Z,101527.25
2023-05-19T04:43:29.897Z,101524.17
2023-05-19T04:45:58.698Z,101524.23
2023-05-19T04:48:27.591Z,101528.14
2023-05-19T04:50:55.857Z,101533.24
2023-05-19T04:53:25.986Z,101533.13
2023-05-19T04:55:54.459Z,101533.80
2023-05-19T04:58:26.104Z,101538.48
2023-05-19T05:01:00.856Z,101535.91
2023-05-19T05:03:31.231Z,101543.31
2023-05-19T05:05:59.744Z,101539.08
2023-05-19T05:08:30.477Z,101543.23
2023-05-19T05:10:59.659Z,101542.94
2023-05-19T05:13:28.156Z,101545.55
2023-05-19T05:15:56.910Z,101551.98
2023-05-19T05:18:25.825Z,101549.36
2023-05-19T05:20:54.522Z,101556.34
2023-05-19T05:23:23.145Z,101556.14
2023-05-19T05:25:52.615Z,101557.15
2023-05-19T05:28:21.397Z,101555.30
2023-05-19T05:30:52.904Z,101554.66
2023-05-19T05:33:22.501Z,101558.29
2023-05-19T05:35:51.345Z,101559.80
2023-05-19T05:38:19.925Z,101562.09
2023-05-19T05:40:49.647Z,101562.50
2023-05-19T05:43:18.225Z,101561.31
2023-05-19T05:45:51.226Z,101561.38
2023-05-19T05:48:20.258Z,101567.25
2023-05-19T05:50:50.484Z,101564.01
2023-05-19T05:53:21.894Z,101572.48
2023-05-19T05:55:53.708Z,101570.16
2023-05-19T05:58:24.615Z,101573.66
2023-05-19T06:00:53.777Z,101574.92
2023-05-19T06:03:24.636Z,101575.34
2023-05-19T06:05:53.650Z,101574.64
2023-05-19T06:08:22.303Z,101584.05
2023-05-19T06:10:51.008Z,101579.96
2023-05-19T06:13:24.288Z,101580.20
2023-05-19T06:15:53.439Z,101581.88
2023-05-19T06:18:26.763Z,101584.34
2023-05-19T06:20:56.574Z,101585.95
2023-05-19T06:23:27.142Z,101585.15
2023-05-19T06:25:56.204Z,101584.21
2023-05-19T06:28:24.588Z,101592.92
2023-05-19T06:30:53.057Z,101592.57
2023-05-19T06:33:29.138Z,101591.83
2023-05-19T06:35:58.525Z,101593.55
2023-05-19T06:38:27.011Z,101597.19
2023-05-19T06:40:55.527Z,101592.80
2023-05-19T06:43:26.015Z,101594.61
2023-05-19T06:45:59.427Z,101591.40
2023-05-19T06:48:28.200Z,101595.27
2023-05-19T06:50:57.526Z,101588.13
2023-05-19T06:53:26.112Z,101592.77
2023-05-19T06:55:59.954Z,101593.05
2023-05-19T06:58:32.566Z,101593.30
2023-05-19T07:01:01.250Z,101598.05
2023-05-19T07:03:32.843Z,101595.38
2023-05-19T07:06:01.285Z,101593.54
2023-05-19T07:08:29.879Z,101598.04
2023-05-19T07:10:58.786Z,101605.31
2023-05-19T07:13:27.575Z,101601.94
2023-05-19T07:15:56.911Z,101596.67
2023-05-19T07:18:26.147Z,101599.46
2023-05-19T07:20:54.747Z,101601.59
2023-05-19T07:23:23.212Z,101601.13
2023-05-19T07:25:56.462Z,101600.67
2023-05-19T07:28:24.881Z,101603.58
2023-05-19T07:30:53.481Z,101609.41
2023-05-19T07:33:21.647Z,101603.92
2023-05-19T07:35:49.924Z,101607.13
2023-05-19T07:38:18.093Z,101610.92
2023-05-19T07:40:46.467Z,101605.77
2023-05-19T07:43:14.647Z,101606.34
2023-05-19T07:45:43.164Z,101608.22
2023-05-19T07:48:11.952Z,101610.05
2023-05-19T07:50:40.197Z,101611.80
2023-05-19T07:53:08.989Z,101615.81
2023-05-19T07:55:37.153Z,101620.73
2023-05-19T07:58:05.744Z,101615.09
2023-05-19T08:00:34.204Z,101616.75
2023-05-19T08:03:03.451Z,101613.94
2023-05-19T08:05:31.800Z,101608.34
2023-05-19T08:08:00.110Z,101609.36
2023-05-19T08:10:28.656Z,101613.19
2023-05-19T08:12:57.140Z,101614.02
2023-05-19T08:15:25.840Z,101612.36
2023-05-19T08:17:54.226Z,101607.34
2023-05-19T08:20:23.222Z,101603.84
2023-05-19T08:22:51.892Z,101599.81
2023-05-19T08:25:20.667Z,101602.20
2023-05-19T08:27:49.066Z,101605.14
2023-05-19T08:30:17.231Z,101603.14
2023-05-19T08:32:45.472Z,101604.84
2023-05-19T08:35:14.088Z,101606.88
2023-05-19T08:37:42.269Z,101612.27
2023-05-19T08:40:17.468Z,101610.28
2023-05-19T08:42:46.394Z,101608.52
2023-05-19T08:45:14.668Z,101611.07
2023-05-19T08:47:46.390Z,101607.45
2023-05-19T08:50:21.665Z,101604.09
2023-05-19T08:53:31.360Z,101599.02
2023-05-19T08:56:13.722Z,101600.96
2023-05-19T08:58:44.220Z,101604.34
2023-05-19T09:01:17.171Z,101602.30
2023-05-19T09:03:47.450Z,101600.95
2023-05-19T09:06:16.139Z,101609.10
2023-05-19T09:08:44.932Z,101604.71
2023-05-19T09:11:13.507Z,101604.83
2023-05-19T09:13:42.511Z,101601.11
2023-05-19T09:16:12.147Z,101597.91
2023-05-19T09:18:41.324Z,101600.57
2023-05-19T09:21:11.379Z,101600.72
2023-05-19T09:23:39.720Z,101599.50
2023-05-19T09:26:08.357Z,101603.34
2023-05-19T09:28:38.109Z,101603.95
2023-05-19T09:31:09.153Z,101602.95
2023-05-19T09:33:39.475Z,101602.38
2023-05-19T09:36:14.197Z,101599.96
2023-05-19T09:38:42.787Z,101599.16
2023-05-19T09:41:11.155Z,101591.58
2023-05-19T09:43:39.434Z,101589.78
2023-05-19T09:46:12.982Z,101596.71
2023-05-19T09:48:42.844Z,101592.68
2023-05-19T09:51:11.897Z,101598.99
2023-05-19T09:53:40.128Z,101600.38
2023-05-19T09:56:10.066Z,101594.27
2023-05-19T09:58:42.412Z,101593.73
2023-05-19T10:01:11.539Z,101593.94
2023-05-19T10:03:42.027Z,101590.94
2023-05-19T10:06:10.919Z,101591.52
2023-05-19T10:08:42.635Z,101592.91
2023-05-19T10:11:14.759Z,101594.10
2023-05-19T10:13:45.619Z,101592.21
2023-05-19T10:16:16.616Z,101591.27
2023-05-19T10:18:44.925Z,101590.42
2023-05-19T10:21:14.602Z,101590.80
2023-05-19T10:23:42.896Z,101593.57
2023-05-19T10:26:12.186Z,101593.77
2023-05-19T10:28:44.936Z,101593.80
2023-05-19T10:31:19.802Z,101587.97
2023-05-19T10:34:05.582Z,101589.70
2023-05-19T10:36:46.419Z,101587.58
2023-05-19T10:39:35.684Z,101583.75
2023-05-19T10:42:19.725Z,101591.94
2023-05-19T10:45:19.090Z,101593.54
2023-05-19T10:47:47.371Z,101588.98
2023-05-19T10:50:16.139Z,101590.02
2023-05-19T10:52:45.032Z,101591.56
2023-05-19T10:55:17.875Z,101594.69
2023-05-19T10:57:58.782Z,101590.60
2023-05-19T11:00:29.032Z,101591.50
2023-05-19T11:03:18.658Z,101593.97
2023-05-19T11:05:50.250Z,101600.92
2023-05-19T11:08:32.644Z,101604.58
2023-05-19T11:11:17.829Z,101606.15
2023-05-19T11:13:52.380Z,101607.98
2023-05-19T11:16:31.726Z,101613.48
2023-05-19T11:19:00.935Z,101607.45
2023-05-19T11:21:55.494Z,101611.41
2023-05-19T11:24:46.074Z,101610.92
2023-05-19T11:27:25.822Z,101603.80
2023-05-19T11:30:12.011Z,101601.67
2023-05-19T11:32:42.955Z,101603.20
2023-05-19T11:35:11.312Z,101604.13
2023-05-19T11:37:40.952Z,101601.16
2023-05-19T11:40:09.846Z,101599.60
2023-05-19T11:42:38.204Z,101606.02
2023-05-19T11:45:07.610Z,101597.50
2023-05-19T11:47:50.935Z,101605.48
2023-05-19T11:50:25.773Z,101604.73
2023-05-19T11:52:55.308Z,101602.42
2023-05-19T11:55:23.561Z,101595.61
2023-05-19T11:58:04.738Z,101601.86
2023-05-19T12:00:40.921Z,101599.77
2023-05-19T12:03:10.278Z,101595.94
2023-05-19T12:05:45.073Z,101601.82
2023-05-19T12:08:14.029Z,101598.33
2023-05-19T12:10:42.415Z,101590.84
2023-05-19T12:13:11.228Z,101592.36
2023-05-19T12:15:39.797Z,101592.39
2023-05-19T12:18:08.734Z,101588.52
2023-05-19T12:20:38.024Z,101588.86
2023-05-19T12:23:06.768Z,101593.62
2023-05-19T12:25:35.394Z,101594.74
2023-05-19T12:28:05.022Z,101597.46
2023-05-19T12:30:34.745Z,101593.38
2023-05-19T12:33:03.836Z,101593.40
2023-05-19T12:35:36.505Z,101591.02
2023-05-19T12:38:06.777Z,101591.11
2023-05-19T12:40:36.496Z,101589.95
2023-05-19T12:43:05.798Z,101588.75
2023-05-19T12:45:35.675Z,101581.92
2023-05-19T12:48:06.820Z,101579.48
2023-05-19T12:50:38.264Z,101573.89
2023-05-19T12:53:11.896Z,101578.81
2023-05-19T12:55:44.347Z,101578.44
2023-05-19T12:58:13.565Z,101577.17
2023-05-19T13:00:44.062Z,101573.70
2023-05-19T13:03:19.808Z,101574.67
2023-05-19T13:05:50.534Z,101572.58
2023-05-19T13:08:21.927Z,101572.73
2023-05-19T13:10:50.400Z,101573.22
2023-05-19T13:13:19.582Z,101565.46
2023-05-19T13:15:49.345Z,101570.27
2023-05-19T13:18:18.647Z,101568.45
2023-05-19T13:20:49.265Z,101568.02
2023-05-19T13:23:17.737Z,101569.05
2023-05-19T13:25:46.292Z,101562.02
2023-05-19T13:28:14.674Z,101560.40
2023-05-19T13:30:44.817Z,101555.41
2023-05-19T13:33:13.251Z,101559.23
2023-05-19T13:35:41.761Z,101560.19
2023-05-19T13:38:10.843Z,101558.41
2023-05-19T13:43:28.390Z,101558.63
2023-05-19T13:45:56.803Z,101563.36
2023-05-19T13:48:25.150Z,101567.55
2023-05-19T13:50:55.786Z,101566.93
2023-05-19T13:51:32.936Z,101562.39
2023-05-19T13:53:24.069Z,101568.22
2023-05-19T13:55:55.415Z,101567.40
2023-05-19T13:58:23.785Z,101566.56
2023-05-19T14:00:54.932Z,101569.09
2023-05-19T14:03:23.663Z,101570.83
2023-05-19T14:05:52.533Z,101571.27
2023-05-19T14:08:21.188Z,101574.15
2023-05-19T14:10:50.706Z,101575.09
2023-05-19T14:13:32.679Z,101575.79
2023-05-19T14:16:03.806Z,101577.36
2023-05-19T14:18:32.741Z,101577.96
2023-05-19T14:21:01.211Z,101570.14
2023-05-19T14:23:30.560Z,101567.02
2023-05-19T14:25:58.994Z,101567.33
2023-05-19T14:28:27.477Z,101567.33
2023-05-19T14:30:55.857Z,101568.23
2023-05-19T14:33:24.130Z,101569.84
2023-05-19T14:35:53.124Z,101567.73
2023-05-19T14:38:21.701Z,101571.86
2023-05-19T14:40:50.085Z,101573.85
2023-05-19T14:43:18.358Z,101567.83
2023-05-19T14:45:46.530Z,101571.21
2023-05-19T14:48:14.868Z,101577.11
2023-05-19T14:50:43.297Z,101583.39
2023-05-19T14:53:11.872Z,101583.16
2023-05-19T14:55:40.157Z,101588.21
2023-05-19T14:58:23.606Z,101592.39
2023-05-19T15:00:57.417Z,101598.10
2023-05-19T15:03:25.949Z,101596.66
2023-05-19T15:05:54.256Z,101596.88
2023-05-19T15:08:22.733Z,101600.20
2023-05-19T15:10:51.631Z,101598.86
2023-05-19T15:13:21.693Z,101600.56
2023-05-19T15:16:08.361Z,101602.80
2023-05-19T15:18:43.694Z,101597.85
2023-05-19T15:21:12.185Z,101602.04
2023-05-19T15:23:40.449Z,101603.23
2023-05-19T15:26:09.031Z,101609.64
2023-05-19T15:28:37.516Z,101610.77
2023-05-19T15:31:05.819Z,101613.74
2023-05-19T15:33:34.184Z,101615.27
2023-05-19T15:36:02.567Z,101610.84
2023-05-19T15:38:32.363Z,101614.66
2023-05-19T15:41:00.647Z,101618.48
2023-05-19T15:43:28.912Z,101622.56
2023-05-19T15:45:57.308Z,101621.71
2023-05-19T15:48:29.017Z,101623.80
2023-05-19T15:50:58.468Z,101633.16
2023-05-19T15:53:26.959Z,101638.35
2023-05-19T15:55:57.585Z,101635.16
2023-05-19T15:58:26.161Z,101631.16
2023-05-19T16:00:54.857Z,101633.44
2023-05-19T16:03:23.210Z,101634.88
2023-05-19T16:05:54.090Z,101631.08
2023-05-19T16:08:23.046Z,101630.56
2023-05-19T16:10:51.250Z,101632.93
2023-05-19T16:13:19.440Z,101633.52
2023-05-19T16:15:48.674Z,101632.51
2023-05-19T16:18:17.078Z,101630.48
2023-05-19T16:20:45.350Z,101635.00
2023-05-19T16:23:13.534Z,101638.75
2023-05-19T16:25:42.012Z,101645.72
2023-05-19T16:28:10.390Z,101654.63
2023-05-19T16:30:38.769Z,101658.52
2023-05-19T16:33:07.096Z,101657.18
2023-05-19T16:35:36.435Z,101660.10
2023-05-19T16:38:04.823Z,101662.13
2023-05-19T16:40:33.202Z,101662.93
2023-05-19T16:43:01.789Z,101667.11
2023-05-19T16:45:29.807Z,101668.34
2023-05-19T16:47:58.372Z,101671.30
2023-05-19T16:50:26.722Z,101679.64
2023-05-19T16:52:55.305Z,101680.00
2023-05-19T16:55:25.632Z,101680.26
2023-05-19T16:57:54.011Z,101677.41
2023-05-19T17:00:22.694Z,101679.95
2023-05-19T17:02:51.056Z,101689.06
2023-05-19T17:05:19.473Z,101692.56
2023-05-19T17:07:47.741Z,101699.00
2023-05-19T17:10:16.108Z,101706.87
2023-05-19T17:12:44.480Z,101702.96
2023-05-19T17:15:12.780Z,101699.73
2023-05-19T17:17:41.094Z,101715.02
2023-05-19T17:20:10.564Z,101716.83
2023-05-19T17:22:38.923Z,101719.73
2023-05-19T17:25:07.827Z,101719.70
2023-05-19T17:27:35.987Z,101719.27
2023-05-19T17:30:05.059Z,101720.98
2023-05-19T17:32:38.788Z,101723.33
2023-05-19T17:35:07.977Z,101727.59
2023-05-19T17:37:36.667Z,101731.15
2023-05-19T17:40:05.615Z,101732.93
2023-05-19T17:42:34.044Z,101736.52
2023-05-19T17:45:04.630Z,101745.06
2023-05-19T17:47:33.020Z,101744.68
2023-05-19T17:50:01.751Z,101739.73
2023-05-19T17:52:30.865Z,101736.55
2023-05-19T17:54:59.722Z,101738.27
2023-05-19T17:57:32.577Z,101739.12
2023-05-19T18:00:01.610Z,101735.92
2023-05-19T18:02:30.577Z,101729.38
2023-05-19T18:05:00.321Z,101732.83
2023-05-19T18:07:29.717Z,101734.61
2023-05-19T18:10:01.327Z,101732.58
2023-05-19T18:12:29.643Z,101732.84
2023-05-19T18:14:58.018Z,101732.06
2023-05-19T18:17:26.540Z,101729.56
2023-05-19T18:19:55.183Z,101730.65
2023-05-19T18:22:23.970Z,101730.83
2023-05-19T18:24:52.355Z,101732.80
2023-05-19T18:27:20.833Z,101729.46
2023-05-19T18:29:49.123Z,101732.14
2023-05-19T18:32:18.002Z,101731.52
2023-05-19T18:34:46.483Z,101732.65
2023-05-19T18:37:14.779Z,101734.84
2023-05-19T18:39:43.038Z,101733.83
2023-05-19T18:42:11.211Z,101726.96
2023-05-19T18:44:39.392Z,101723.06
2023-05-19T18:47:07.784Z,101725.39
2023-05-19T18:49:36.144Z,101726.88
2023-05-19T18:52:05.085Z,101726.11
2023-05-19T18:54:33.183Z,101724.83
2023-05-19T18:57:03.431Z,101725.26
2023-05-19T18:59:31.712Z,101717.94
2023-05-19T19:01:59.992Z,101719.96
2023-05-19T19:04:28.326Z,101722.48
2023-05-19T19:06:56.533Z,101722.49
2023-05-19T19:09:24.737Z,101725.93
2023-05-19T19:11:52.893Z,101733.27
2023-05-19T19:14:21.165Z,101730.46
2023-05-19T19:16:49.361Z,101726.59
2023-05-19T19:19:17.645Z,101735.52
2023-05-19T19:21:45.985Z,101733.10
2023-05-19T19:24:14.173Z,101728.28
2023-05-19T19:26:42.441Z,101725.21
2023-05-19T19:29:10.720Z,101729.01
2023-05-19T19:31:39.116Z,101727.55
2023-05-19T19:34:09.422Z,101731.62
2023-05-19T19:36:37.602Z,101726.95
2023-05-19T19:39:05.979Z,101723.52
2023-05-19T19:41:34.070Z,101730.52
2023-05-19T19:44:02.392Z,101730.24
2023-05-19T19:46:30.763Z,101726.41
2023-05-19T19:49:01.863Z,101724.47
2023-05-19T19:51:30.033Z,101716.21
2023-05-19T19:53:58.809Z,101716.14
2023-05-19T19:56:27.826Z,101718.45
2023-05-19T19:58:59.160Z,101723.23
2023-05-19T20:01:28.059Z,101723.70
2023-05-19T20:03:57.838Z,101729.27
2023-05-19T20:06:26.464Z,101723.94
2023-05-19T20:08:54.818Z,101724.09
2023-05-19T20:11:24.588Z,101730.38
2023-05-19T20:13:53.634Z,101734.61
2023-05-19T20:16:22.375Z,101737.95
2023-05-19T20:18:50.935Z,101732.34
2023-05-19T20:21:19.273Z,101732.71
2023-05-19T20:23:47.862Z,101734.73
2023-05-19T20:26:16.761Z,101732.19
2023-05-19T20:28:45.341Z,101729.14
2023-05-19T20:31:14.122Z,101734.00
2023-05-19T20:33:42.414Z,101728.44
2023-05-19T20:36:11.291Z,101736.66
2023-05-19T20:38:39.467Z,101744.70
2023-05-19T20:41:07.971Z,101742.32
2023-05-19T20:43:36.322Z,101745.07
2023-05-19T20:46:04.637Z,101744.31
2023-05-19T20:48:33.287Z,101739.08
2023-05-19T20:51:01.773Z,101735.16
2023-05-19T20:53:30.040Z,101732.98
2023-05-19T20:55:58.424Z,101731.08
2023-05-19T20:58:30.263Z,101737.16
2023-05-19T21:00:58.813Z,101734.61
2023-05-19T21:03:27.447Z,101729.66
2023-05-19T21:05:56.242Z,101729.48
2023-05-19T21:08:26.366Z,101725.16
2023-05-19T21:10:54.644Z,101718.95
2023-05-19T21:13:22.913Z,101708.52
2023-05-19T21:15:51.326Z,101706.70
2023-05-19T21:18:19.574Z,101704.02
2023-05-19T21:20:47.789Z,101706.61
2023-05-19T21:23:16.023Z,101705.31
2023-05-19T21:25:45.425Z,101704.00
2023-05-19T21:28:13.910Z,101702.15
2023-05-19T21:30:42.108Z,101702.58
2023-05-19T21:33:11.813Z,101704.41
2023-05-19T21:35:40.064Z,101706.61
2023-05-19T21:38:19.606Z,101708.96
2023-05-19T21:40:53.230Z,101712.95
2023-05-19T21:43:22.099Z,101714.32
2023-05-19T21:45:51.114Z,101713.21
2023-05-19T21:48:19.612Z,101714.42
2023-05-19T21:50:55.756Z,101714.41
2023-05-19T21:53:24.903Z,101715.95
2023-05-19T21:55:53.104Z,101712.91
2023-05-19T21:58:21.198Z,101711.77
2023-05-19T22:00:50.477Z,101716.95
2023-05-19T22:03:19.718Z,101715.39
2023-05-19T22:05:51.902Z,101715.08
2023-05-19T22:08:22.310Z,101717.91
2023-05-19T22:10:51.856Z,101720.38
2023-05-19T22:13:21.094Z,101725.30
2023-05-19T22:15:49.574Z,101737.77
2023-05-19T22:18:17.836Z,101764.14
2023-05-19T22:20:46.109Z,101767.92
2023-05-19T22:23:14.822Z,101765.85
2023-05-19T22:25:43.074Z,101761.30
2023-05-19T22:28:11.352Z,101749.21
2023-05-19T22:30:40.886Z,101759.19
2023-05-19T22:33:11.439Z,101773.09
2023-05-19T22:35:39.969Z,101769.10
2023-05-19T22:38:10.298Z,101756.20
2023-05-19T22:40:39.277Z,101771.70
2023-05-19T22:43:07.455Z,101771.70
2023-05-19T22:45:36.974Z,101772.98
2023-05-19T22:48:06.187Z,101774.86
2023-05-19T22:50:34.757Z,101775.89
2023-05-19T22:53:02.808Z,101777.00
2023-05-19T22:55:30.996Z,101780.66
2023-05-19T22:57:59.262Z,101776.36
2023-05-19T23:00:27.549Z,101774.43
2023-05-19T23:02:55.924Z,101773.73
2023-05-19T23:05:24.619Z,101768.55
2023-05-19T23:07:52.994Z,101766.13
2023-05-19T23:10:21.371Z,101764.41
2023-05-19T23:12:50.357Z,101760.69
2023-05-19T23:15:18.631Z,101763.57
2023-05-19T23:17:46.845Z,101761.92
2023-05-19T23:20:15.186Z,101758.73
2023-05-19T23:22:43.464Z,101762.85
2023-05-19T23:25:11.858Z,101759.57
2023-05-19T23:27:40.013Z,101755.58
2023-05-19T23:30:08.921Z,101751.42
2023-05-19T23:32:37.196Z,101748.85
2023-05-19T23:35:18.676Z,101748.73
2023-05-19T23:37:46.964Z,101761.79
2023-05-19T23:40:15.750Z,101769.05
2023-05-19T23:42:44.835Z,101764.38
2023-05-19T23:45:13.123Z,101763.81
2023-05-19T23:47:41.565Z,101764.18
2023-05-19T23:50:10.867Z,101764.65
2023-05-19T23:52:38.969Z,101759.14
2023-05-19T23:55:08.160Z,101758.95
2023-05-19T23:57:36.548Z,101753.09
